• Join FlightAware (Why Join?)
  • Login
  • US Flag 
10:33AM EST


 

Airport Tracker/Info


-or-


 

Live Flight TrackerFlight Track Log ✈ EJM826 ✈ 31-Jul-2013 ✈ KSAN - KSAT

Flight Track Log - Related Links

Times and Time Zones

All times are in EDT time to prevent confusion due to time zone crossing. See the EJM826 flight status page for this flight to view local times or setup timezone preferences in your user account.

Time Position Orientation Groundspeed Altitude Reporting Facility
EDT Latitude Longitude Course Direction KTS MPH feet Rate Location/Type
05:00PM 32.7333 -117.2167 287° West 149 171 1,600  Level Southern California TRACON
05:01PM 32.7500 -117.2833 287° West 210 242 3,400 1,920 Climbing Southern California TRACON
05:02PM 32.7294 -117.3253 240° Southwest 219 252 5,600 2,100 Climbing Los Angeles Center
05:03PM 32.6803 -117.2861 146° Southeast 214 246 7,800 1,920 Climbing Los Angeles Center
05:04PM 32.6447 -117.2189 122° Southeast 256 295 9,600 1,560 Climbing Los Angeles Center
05:05PM 32.6331 -117.1244 98° East 291 335 11,100 1,740 Climbing Los Angeles Center
05:06PM 32.6172 -117.0044 99° East 308 354 13,300 1,920 Climbing Los Angeles Center
05:07PM 32.6028 -116.9019 99° East 315 362 15,100 1,740 Climbing Los Angeles Center
05:08PM 32.6258 -116.7986 75° East 333 383 17,000 1,560 Climbing Los Angeles Center
05:09PM 32.6386 -116.6925 82° East 332 382 18,400 1,440 Climbing Los Angeles Center
05:10PM 32.6478 -116.5819 84° East 337 388 20,000 1,440 Climbing Los Angeles Center
05:11PM 32.6611 -116.4453 83° East 350 403 21,500 1,260 Climbing Los Angeles Center
05:12PM 32.6725 -116.3272 83° East 364 419 22,700 1,200 Climbing Los Angeles Center
05:13PM 32.6839 -116.2075 84° East 370 426 24,000 1,140 Climbing Los Angeles Center
05:14PM 32.6961 -116.0839 83° East 380 437 25,100 1,200 Climbing Los Angeles Center
05:15PM 32.7103 -115.9331 84° East 385 443 26,500 1,200 Climbing Los Angeles Center
05:16PM 32.7214 -115.8047 84° East 390 449 27,700 1,020 Climbing Los Angeles Center
05:17PM 32.7331 -115.6767 84° East 391 450 28,700 900 Climbing Los Angeles Center
05:18PM 32.7444 -115.5456 84° East 398 458 29,600 900 Climbing Los Angeles Center
05:19PM 32.7511 -115.4125 87° East 404 465 30,600 840 Climbing Los Angeles Center
05:20PM 32.7528 -115.2781 89° East 407 468 31,400 720 Climbing Los Angeles Center
05:21PM 32.7597 -115.1122 87° East 417 480 32,200 960 Climbing Los Angeles Center
05:22PM 32.7625 -114.9719 89° East 424 488 33,500 1,200 Climbing Los Angeles Center
05:23PM 32.7653 -114.8358 89° East 417 480 34,800 1,140 Climbing Los Angeles Center
05:24PM 32.7675 -114.6997 89° East 414 476 35,900 1,080 Climbing Los Angeles Center
05:25PM 32.7658 -114.5669 91° East 406 467 37,100 1,080 Climbing Los Angeles Center
05:27PM 32.7686 -114.4075 89° East 404 465 38,200 960 Climbing Los Angeles Center
05:28PM 32.7711 -114.2747 89° East 403 464 39,100 1,020 Climbing Los Angeles Center
05:29PM 32.7714 -114.1425 90° East 402 463 40,400 840 Climbing Los Angeles Center
05:30PM 32.7742 -114.0122 89° East 396 456 40,900 240 Climbing Los Angeles Center
05:31PM 32.7878 -113.8764 83° East 408 470 41,000  Climbing Los Angeles Center
05:32PM 32.8108 -113.7336 79° East 432 497 41,000  Level Los Angeles Center
05:33PM 32.8356 -113.5586 80° East 449 517 41,000  Level Los Angeles Center
05:34PM 32.8567 -113.4092 80° East 457 526 41,000  Level Los Angeles Center
05:35PM 32.8778 -113.2686 80° East 459 528 41,000  Level Los Angeles Center
05:36PM 32.8986 -113.1167 81° East 463 533 41,000  Level Los Angeles Center
05:37PM 32.9272 -112.9033 81° East 462 532 41,000  Level Albuquerque Center
05:38PM 32.9464 -112.7531 81° East 459 528 41,000  Level Albuquerque Center
05:39PM 32.9378 -112.6047 94° East 451 519 41,000  Level Albuquerque Center
05:40PM 32.9108 -112.4314 100° East 445 512 41,000  Level Albuquerque Center
05:41PM 32.8881 -112.2872 101° East 444 511 41,000  Level Albuquerque Center
05:42PM 32.8683 -112.1569 100° East 441 507 41,000  Level Albuquerque Center
05:43PM 32.8469 -112.0153 100° East 439 505 41,000  Level Albuquerque Center
05:44PM 32.8200 -111.8433 101° East 443 510 41,000  Level Albuquerque Center
05:45PM 32.7981 -111.7017 100° East 440 506 41,000  Level Albuquerque Center
05:47PM 32.7758 -111.5592 100° East 441 507 41,000  Level Albuquerque Center
05:48PM 32.7539 -111.4164 100° East 441 507 41,000  Level Albuquerque Center
05:49PM 32.7300 -111.2775 102° East 435 501 41,000  Level Albuquerque Center
05:50PM 32.7025 -111.1086 101° East 435 501 41,000  Level Albuquerque Center
05:51PM 32.6792 -110.9661 101° East 441 507 41,000  Level Albuquerque Center
05:52PM 32.6561 -110.8258 101° East 438 504 41,000  Level Albuquerque Center
05:53PM 32.6331 -110.6853 101° East 436 502 41,000  Level Albuquerque Center
05:54PM 32.6097 -110.5458 101° East 433 498 41,000  Level Albuquerque Center
05:55PM 32.5864 -110.4069 101° East 432 497 41,000  Level Albuquerque Center
05:56PM 32.5594 -110.2508 102° East 430 495 41,000  Level Albuquerque Center
05:57PM 32.5364 -110.1136 101° East 427 491 41,000  Level Albuquerque Center
05:58PM 32.5122 -109.9708 101° East 438 504 41,000  Level Albuquerque Center
05:59PM 32.4864 -109.8272 102° East 445 512 41,000  Level Albuquerque Center
06:00PM 32.4544 -109.6533 102° East 453 521 41,000  Level Albuquerque Center
06:01PM 32.4292 -109.5100 102° East 451 519 41,000  Level Albuquerque Center
06:02PM 32.4039 -109.3678 102° East 446 513 41,000  Level Albuquerque Center
06:03PM 32.3786 -109.2258 102° East 445 512 41,000  Level Albuquerque Center
06:04PM 32.3500 -109.0853 104° East 444 511 41,000  Level Albuquerque Center
06:05PM 32.3153 -108.9183 104° East 441 507 41,000  Level Albuquerque Center
06:06PM 32.2903 -108.7783 102° East 439 505 41,000  Level Albuquerque Center
06:07PM 32.2667 -108.6372 101° East 441 507 41,000  Level Albuquerque Center
06:08PM 32.2400 -108.4961 103° East 443 510 41,000  Level Albuquerque Center
06:09PM 32.2122 -108.3406 102° East 441 507 41,000  Level Albuquerque Center
06:10PM 32.1850 -108.2000 103° East 441 507 41,000  Level Albuquerque Center
06:11PM 32.1603 -108.0581 102° East 443 510 41,000  Level Albuquerque Center
06:12PM 32.1333 -107.9175 103° East 443 510 41,000  Level Albuquerque Center
06:13PM 32.1072 -107.7767 102° East 442 509 41,000  Level Albuquerque Center
06:14PM 32.0806 -107.6356 103° East 443 510 41,000  Level Albuquerque Center
06:15PM 32.0489 -107.4664 102° East 444 511 41,000  Level Albuquerque Center
06:16PM 32.0217 -107.3264 103° East 443 510 41,000  Level Albuquerque Center
06:17PM 31.9944 -107.1850 103° East 445 512 41,000  Level Albuquerque Center
06:18PM 31.9686 -107.0456 102° East 442 509 41,000  Level Albuquerque Center
06:19PM 31.9406 -106.9050 103° East 444 511 41,000  Level Albuquerque Center
06:21PM 31.9075 -106.7378 103° East 442 509 41,000  Level Albuquerque Center
06:22PM 31.8800 -106.5983 103° East 441 507 41,000  Level Albuquerque Center
06:23PM 31.8506 -106.4569 104° East 445 512 41,000  Level Albuquerque Center
06:24PM 31.8217 -106.3167 104° East 444 511 41,000  Level Albuquerque Center
06:25PM 31.7908 -106.1731 104° East 455 524 41,000  Level Albuquerque Center
06:26PM 31.7550 -106.0367 107° East 439 505 41,000  Level Albuquerque Center
06:27PM 31.7211 -105.8992 106° East 439 505 41,000  Level Albuquerque Center
06:28PM 31.6786 -105.7331 107° East 442 509 41,000  Level Albuquerque Center
06:29PM 31.6439 -105.5950 106° East 441 507 41,000  Level Albuquerque Center
06:30PM 31.6094 -105.4572 106° East 440 506 41,000  Level Albuquerque Center
06:31PM 31.5742 -105.3194 107° East 440 506 41,000  Level Albuquerque Center
06:32PM 31.5397 -105.1853 107° East 432 497 41,000  Level Albuquerque Center
06:33PM 31.5064 -105.0478 106° East 435 501 41,000  Level Albuquerque Center
06:34PM 31.4703 -104.9092 107° East 441 507 41,000  Level Albuquerque Center
06:35PM 31.4272 -104.7433 107° East 442 509 41,000  Level Albuquerque Center
06:36PM 31.3914 -104.6058 107° East 440 506 41,000  Level Albuquerque Center
06:37PM 31.3558 -104.4669 107° East 442 509 41,000  Level Albuquerque Center
06:38PM 31.3194 -104.3300 107° East 440 506 41,000  Level Albuquerque Center
06:39PM 31.2833 -104.1917 107° East 443 510 41,000  Level Albuquerque Center
06:40PM 31.2467 -104.0542 107° East 444 511 41,000  Level Albuquerque Center
06:41PM 31.2094 -103.9164 107° East 444 511 41,000  Level Albuquerque Center
06:42PM 31.1656 -103.7625 108° East 444 511 41,000  Level Albuquerque Center
06:43PM 31.1275 -103.6242 108° East 448 516 41,000  Level Albuquerque Center
06:44PM 31.0889 -103.4861 108° East 448 516 41,000  Level Albuquerque Center
06:45PM 31.0511 -103.3492 108° East 447 514 41,000  Level Albuquerque Center
06:46PM 31.0147 -103.2147 107° East 440 506 41,000  Level Albuquerque Center
06:47PM 30.9717 -103.0564 108° East 432 497 41,000  Level Albuquerque Center
06:48PM 30.9358 -102.9228 107° East 433 498 41,000  Level Albuquerque Center
06:49PM 30.9003 -102.7861 107° East 440 506 41,000  Level Albuquerque Center
06:50PM 30.8653 -102.6503 107° East 441 507 41,000  Level Albuquerque Center
06:51PM 30.8300 -102.5136 107° East 443 510 41,000  Level Albuquerque Center
06:52PM 30.7950 -102.3772 107° East 445 512 41,000  Level Albuquerque Center
06:53PM 30.7731 -102.2950 107° East 444 511 41,000  Level Houston Center
06:54PM 30.7364 -102.1586 107° East 444 511 41,000  Level Houston Center
06:55PM 30.6936 -101.9936 107° East 446 513 41,000  Level Houston Center
06:56PM 30.6569 -101.8564 107° East 447 514 41,000  Level Houston Center
06:57PM 30.6208 -101.7200 107° East 446 513 41,000  Level Houston Center
06:58PM 30.5844 -101.5833 107° East 442 509 41,000  Level Houston Center
06:59PM 30.5481 -101.4475 107° East 441 507 41,000  Level Houston Center
07:00PM 30.5108 -101.3122 108° East 441 507 41,000  Level Houston Center
07:01PM 30.4669 -101.1492 107° East 441 507 41,000  Level Houston Center
07:02PM 30.4297 -101.0133 108° East 443 510 41,000  Level Houston Center
07:03PM 30.3922 -100.8797 108° East 436 502 41,000  Level Houston Center
07:04PM 30.3558 -100.7442 107° East 439 505 41,000  Level Houston Center
07:05PM 30.3186 -100.6092 108° East 439 505 41,000  Level Houston Center
07:06PM 30.2819 -100.4736 107° East 440 506 41,000 -1,020 Level Houston Center
07:07PM 30.2447 -100.3389 108° East 437 503 38,900 -2,640 Descending Houston Center
07:08PM 30.2017 -100.1756 107° East 435 501 35,600 -3,000 Descending Houston Center
07:10PM 30.1611 -100.0397 109° East 438 504 32,800 -2,820 Descending Houston Center
07:11PM 30.1222 -99.9072 109° East 434 499 29,800 -2,880 Descending Houston Center
07:12PM 30.0844 -99.7747 108° East 434 499 26,900 -2,820 Descending Houston Center
07:13PM 30.0461 -99.6414 108° East 437 503 24,000 -2,820 Descending Houston Center
07:14PM 30.0086 -99.5133 109° East 425 489 21,100 -2,820 Descending Houston Center
07:15PM 29.9747 -99.3900 108° East 409 471 18,200 -3,000 Descending Houston Center
07:16PM 29.9358 -99.2647 110° East 385 443 15,100 -3,060 Descending Houston Center
07:17PM 29.8961 -99.1422 110° East 365 420 11,900 -2,400 Descending Houston Center
07:18PM 29.8425 -99.0408 121° Southeast 356 410 10,000 -1,260 Descending Houston Center
07:19PM 29.7897 -98.9347 120° Southeast 299 344 9,100 -1,320 Descending Houston Center
07:20PM 29.7564 -98.8644 119° Southeast 290 334 7,300 -2,040 Descending Houston Center
07:21PM 29.7128 -98.7778 120° Southeast 274 315 5,100 -1,620 Descending Houston Center
07:22PM 29.6778 -98.7072 120° Southeast 270 311 4,000 -960 Descending Houston Center
07:23PM 29.6444 -98.6406 120° Southeast 247 284 3,300 -660 Descending Houston Center
07:24PM 29.6136 -98.5781 120° Southeast 214 246 2,700 -660 Descending Houston Center
07:25PM 29.5828 -98.5367 131° Southeast 176 203 2,000 -720 Descending Houston Center
07:26PM 29.5592 -98.5050 131° Southeast 141 162 1,300 -600 Descending Houston Center
07:27PM 29.5392 -98.4783 131° Southeast 127 146 800 -540 Descending Houston Center
07:29PM 29.5333 -98.4667 139° Southeast  Level FlightAware Approximate
07:36PM 29.5340 -98.4691 139° Southeast  Level Estimated
07:37PM 29.5333 -98.4667 139° Southeast  Level FlightAware Approximate